createdAt,value
2022-10-21T00:02:19.190Z,23
2022-10-21T00:07:37.663Z,23
2022-10-21T00:12:56.427Z,23
2022-10-21T00:18:15.228Z,23
2022-10-21T00:23:33.764Z,23
2022-10-21T00:28:51.946Z,23
2022-10-21T00:34:10.757Z,23
2022-10-21T00:39:28.932Z,23
2022-10-21T00:44:47.139Z,23
2022-10-21T00:50:05.384Z,23
2022-10-21T00:55:23.301Z,23
2022-10-21T01:00:41.678Z,23
2022-10-21T01:05:59.930Z,23
2022-10-21T01:11:18.373Z,23
2022-10-21T01:16:36.865Z,23
2022-10-21T01:21:55.657Z,23
2022-10-21T01:27:13.832Z,22.9
2022-10-21T01:32:32.309Z,22.9
2022-10-21T01:37:56.369Z,22.9
2022-10-21T01:43:15.104Z,22.9
2022-10-21T01:48:33.578Z,22.9
2022-10-21T01:53:52.100Z,22.9
2022-10-21T01:59:10.278Z,22.9
2022-10-21T02:04:28.768Z,22.9
2022-10-21T02:09:47.286Z,22.9
2022-10-21T02:15:05.191Z,22.9
2022-10-21T02:20:23.962Z,22.9
2022-10-21T02:25:42.774Z,22.9
2022-10-21T02:31:00.962Z,22.9
2022-10-21T02:36:19.438Z,22.9
2022-10-21T02:41:38.242Z,22.9
2022-10-21T02:46:57.910Z,22.9
2022-10-21T02:52:16.315Z,22.9
2022-10-21T02:57:34.861Z,22.9
2022-10-21T03:02:53.646Z,22.9
2022-10-21T03:08:12.405Z,22.9
2022-10-21T03:13:31.198Z,22.9
2022-10-21T03:18:49.950Z,22.9
2022-10-21T03:24:27.744Z,22.9
2022-10-21T03:29:47.585Z,22.9
2022-10-21T03:35:06.068Z,22.9
2022-10-21T03:40:24.557Z,22.9
2022-10-21T03:45:43.061Z,22.9
2022-10-21T03:51:01.537Z,22.9
2022-10-21T03:56:20.026Z,22.9
2022-10-21T04:01:38.152Z,22.9
2022-10-21T04:06:56.547Z,22.9
2022-10-21T04:12:15.327Z,22.9
2022-10-21T04:17:34.119Z,22.9
2022-10-21T04:22:52.860Z,22.9
2022-10-21T04:28:11.637Z,22.9
2022-10-21T04:33:29.602Z,22.9
2022-10-21T04:38:47.767Z,22.9
2022-10-21T04:44:05.966Z,22.9
2022-10-21T04:49:23.929Z,22.8
2022-10-21T04:54:42.401Z,22.8
2022-10-21T05:00:00.888Z,22.9
2022-10-21T05:05:19.712Z,22.9
2022-10-21T05:10:37.893Z,22.9
2022-10-21T05:15:56.674Z,22.9
2022-10-21T05:21:14.603Z,22.9
2022-10-21T05:26:32.471Z,22.9
2022-10-21T05:31:51.234Z,23
2022-10-21T05:37:09.471Z,23
2022-10-21T05:42:27.923Z,23
2022-10-21T05:47:46.675Z,23
2022-10-21T05:53:05.192Z,23.1
2022-10-21T05:58:23.203Z,23
2022-10-21T06:03:41.687Z,23.1
2022-10-21T06:09:00.373Z,23.1
2022-10-21T06:14:18.758Z,23.2
2022-10-21T06:19:37.231Z,23.2
2022-10-21T06:24:55.457Z,23.2
2022-10-21T06:30:13.643Z,23.2
2022-10-21T06:35:32.123Z,23.1
2022-10-21T06:40:50.935Z,23
2022-10-21T06:46:09.394Z,22.9
2022-10-21T06:51:27.874Z,23
2022-10-21T06:56:46.126Z,22.9
2022-10-21T07:02:04.845Z,22.9
2022-10-21T07:07:23.334Z,22.9
2022-10-21T07:12:41.856Z,22.9
2022-10-21T07:18:00.037Z,22.9
2022-10-21T07:23:18.794Z,23
2022-10-21T07:28:37.021Z,23
2022-10-21T07:33:39.585Z,23
2022-10-21T07:38:58.066Z,23
2022-10-21T07:44:16.988Z,23.1
2022-10-21T07:49:35.154Z,23
2022-10-21T07:54:53.649Z,23.1
2022-10-21T08:00:12.165Z,23
2022-10-21T08:05:30.337Z,23
2022-10-21T08:16:08.110Z,23
2022-10-21T08:21:26.548Z,23
2022-10-21T08:26:44.750Z,23.1
2022-10-21T08:32:03.257Z,23.1
2022-10-21T08:37:25.906Z,23.1
2022-10-21T08:42:43.798Z,23.1
2022-10-21T08:48:02.308Z,23.1
2022-10-21T08:53:20.778Z,23.1
2022-10-21T08:58:38.977Z,23.2
2022-10-21T09:03:56.912Z,23.2
2022-10-21T09:09:15.356Z,23.2
2022-10-21T09:14:33.686Z,23.2
2022-10-21T09:19:52.229Z,23.3
2022-10-21T09:25:10.670Z,23.3
2022-10-21T09:30:29.136Z,23.3
2022-10-21T09:35:47.363Z,23.3
2022-10-21T09:41:06.117Z,23.3
2022-10-21T09:46:24.597Z,23.4
2022-10-21T09:51:43.107Z,23.4
2022-10-21T09:57:01.831Z,23.4
2022-10-21T10:02:20.085Z,23.4
2022-10-21T10:07:38.689Z,23.4
2022-10-21T10:12:56.859Z,23.5
2022-10-21T10:18:15.613Z,23.5
2022-10-21T10:23:34.132Z,23.5
2022-10-21T10:28:52.864Z,23.5
2022-10-21T10:34:11.360Z,23.5
2022-10-21T10:39:29.873Z,23.5
2022-10-21T10:44:48.191Z,23.5
2022-10-21T10:50:06.395Z,23.5
2022-10-21T10:55:24.861Z,23.6
2022-10-21T11:00:43.192Z,23.6
2022-10-21T11:06:01.764Z,23.6
2022-10-21T11:11:20.754Z,23.6
2022-10-21T11:16:59.916Z,23.6
2022-10-21T11:22:18.985Z,23.6
2022-10-21T11:27:38.095Z,23.6
2022-10-21T11:32:57.307Z,23.6
2022-10-21T11:38:16.146Z,23.6
2022-10-21T11:43:34.614Z,23.6
2022-10-21T11:48:52.862Z,23.6
2022-10-21T11:54:11.334Z,23.6
2022-10-21T11:59:29.801Z,23.6
2022-10-21T12:04:48.435Z,23.5
2022-10-21T12:10:07.201Z,23.5
2022-10-21T12:15:25.718Z,23.5
2022-10-21T12:20:44.633Z,23.5
2022-10-21T12:26:03.130Z,23.5
2022-10-21T12:31:21.833Z,23.5
2022-10-21T12:36:40.155Z,23.5
2022-10-21T12:41:58.353Z,23.4
2022-10-21T12:47:17.181Z,23.4
2022-10-21T12:52:35.353Z,23.4
2022-10-21T12:57:53.267Z,23.4
2022-10-21T13:03:11.516Z,23.4
2022-10-21T13:08:30.227Z,23.4
2022-10-21T13:13:48.642Z,23.4
2022-10-21T13:19:07.156Z,23.4
2022-10-21T13:24:25.386Z,23.3
2022-10-21T13:29:43.848Z,23.3
2022-10-21T13:35:02.720Z,23.3
2022-10-21T13:40:21.169Z,23.3
2022-10-21T13:50:57.608Z,23.3
2022-10-21T13:56:16.059Z,23.3
2022-10-21T14:01:34.383Z,23.3
2022-10-21T14:06:52.866Z,23.3
2022-10-21T14:12:11.606Z,23.3
2022-10-21T14:17:30.379Z,23.3
2022-10-21T14:22:48.898Z,23.2
2022-10-21T14:28:08.880Z,23.2
2022-10-21T14:33:27.642Z,23.2
2022-10-21T14:38:46.142Z,23.2
2022-10-21T14:44:04.601Z,23.2
2022-10-21T14:49:23.178Z,23.2
2022-10-21T14:54:41.599Z,23.2
2022-10-21T14:59:59.620Z,23.2
2022-10-21T15:05:18.634Z,23.2
2022-10-21T15:10:37.239Z,23.1
2022-10-21T15:15:55.706Z,23.1
2022-10-21T15:21:14.185Z,23.1
2022-10-21T15:26:32.402Z,23.1
2022-10-21T15:31:50.858Z,23.1
2022-10-21T15:37:09.342Z,23.1
2022-10-21T15:42:27.744Z,23.1
2022-10-21T15:47:46.205Z,23.1
2022-10-21T15:53:04.706Z,23.1
2022-10-21T15:58:22.903Z,23.1
2022-10-21T16:03:41.660Z,23.1
2022-10-21T16:09:00.319Z,23.1
2022-10-21T16:14:18.468Z,23.1
2022-10-21T16:19:36.656Z,23.1
2022-10-21T16:24:55.424Z,23
2022-10-21T16:30:13.945Z,23
2022-10-21T16:35:32.672Z,23
2022-10-21T16:40:51.606Z,23
2022-10-21T16:46:10.160Z,23
2022-10-21T16:51:28.911Z,23
2022-10-21T16:56:47.420Z,23
2022-10-21T17:02:05.919Z,23
2022-10-21T17:07:24.648Z,23
2022-10-21T17:12:43.129Z,23
2022-10-21T17:18:01.381Z,22.9
2022-10-21T17:23:20.108Z,23
2022-10-21T17:28:38.865Z,23
2022-10-21T17:33:57.657Z,23
2022-10-21T17:39:15.832Z,23
2022-10-21T17:44:34.049Z,22.9
2022-10-21T17:49:52.268Z,22.9
2022-10-21T17:55:10.726Z,22.9
2022-10-21T18:00:13.306Z,22.9
2022-10-21T18:05:31.552Z,22.9
2022-10-21T18:10:49.736Z,22.9
2022-10-21T18:16:08.505Z,23
2022-10-21T18:21:27.069Z,22.9
2022-10-21T18:26:44.963Z,22.9
2022-10-21T18:32:03.706Z,22.9
2022-10-21T18:37:22.503Z,22.9
2022-10-21T18:42:40.793Z,22.9
2022-10-21T18:47:59.541Z,22.9
2022-10-21T18:53:18.047Z,22.9
2022-10-21T18:58:36.507Z,22.9
2022-10-21T19:03:55.282Z,22.9
2022-10-21T19:09:13.723Z,22.8
2022-10-21T19:14:32.464Z,22.8
2022-10-21T19:19:51.205Z,22.8
2022-10-21T19:25:09.719Z,22.8
2022-10-21T19:30:28.142Z,22.8
2022-10-21T19:35:46.303Z,22.8
2022-10-21T19:41:04.803Z,22.8
2022-10-21T19:46:25.893Z,22.8
2022-10-21T19:51:29.005Z,22.9
2022-10-21T19:56:47.778Z,22.9
2022-10-21T20:02:05.673Z,22.9
2022-10-21T20:07:24.135Z,22.9
2022-10-21T20:12:43.060Z,22.9
2022-10-21T20:18:01.523Z,22.9
2022-10-21T20:23:20.304Z,22.9
2022-10-21T20:28:38.808Z,22.9
2022-10-21T20:33:57.255Z,22.9
2022-10-21T20:39:15.740Z,22.9
2022-10-21T20:44:34.576Z,22.9
2022-10-21T20:49:52.797Z,22.9
2022-10-21T20:55:11.559Z,22.9
2022-10-21T21:00:33.373Z,22.9
2022-10-21T21:05:51.824Z,22.9
2022-10-21T21:11:10.299Z,22.9
2022-10-21T21:16:28.816Z,22.9
2022-10-21T21:21:46.725Z,22.9
2022-10-21T21:27:05.488Z,22.9
2022-10-21T21:32:24.000Z,22.8
2022-10-21T21:37:42.725Z,22.8
2022-10-21T21:43:00.934Z,22.9
2022-10-21T21:48:19.466Z,22.9
2022-10-21T21:53:37.799Z,22.8
2022-10-21T21:58:55.968Z,22.8
2022-10-21T22:04:14.434Z,22.8
2022-10-21T22:09:32.885Z,22.8
2022-10-21T22:14:51.369Z,22.8
2022-10-21T22:20:10.174Z,22.8
2022-10-21T22:25:28.918Z,22.8
2022-10-21T22:30:47.405Z,22.8
2022-10-21T22:36:05.929Z,22.8
2022-10-21T22:41:24.668Z,22.8
2022-10-21T22:46:43.421Z,22.8
2022-10-21T22:52:01.672Z,22.8
2022-10-21T22:57:20.404Z,22.8
2022-10-21T23:02:39.359Z,22.8
2022-10-21T23:07:57.866Z,22.8
2022-10-21T23:13:16.593Z,22.8
2022-10-21T23:18:35.083Z,22.8
2022-10-21T23:23:53.608Z,22.8
2022-10-21T23:29:12.571Z,22.8
2022-10-21T23:34:31.073Z,22.8
2022-10-21T23:39:49.863Z,22.8
2022-10-21T23:45:08.612Z,22.8
2022-10-21T23:50:27.397Z,22.8
2022-10-21T23:55:46.762Z,22.8
